Time;durP1;ratioP1;P1;durP2;ratioP2;P2;SDS_P1;SDS_P2;PMS_P1;PMS_P2;Temp;Humidity;BMP_temperature;BMP_pressure;BME280_temperature;BME280_humidity;BME280_pressure;Samples;Min_cycle;Max_cycle;Signal;HPM_P1;HPM_P2
2022/02/01 00:02:33;;;;;;;17.60;7.93;;;2.40;99.90;;;;;;5062896;28;20209;-45
2022/02/01 00:05:08;;;;;;;15.00;8.33;;;2.40;99.90;;;;;;5062334;28;20198;-46
2022/02/01 00:07:45;;;;;;;17.10;8.07;;;2.40;99.90;;;;;;5058468;28;20221;-45
2022/02/01 00:10:18;;;;;;;22.73;8.77;;;2.50;99.90;;;;;;5046536;28;20682;-46
2022/02/01 00:12:55;;;;;;;20.93;9.23;;;2.50;99.90;;;;;;5060484;28;20947;-46
2022/02/01 00:16:00;;;;;;;17.40;8.83;;;2.50;99.90;;;;;;5041731;28;20226;-49
2022/02/01 00:35:10;;;;;;;16.30;8.10;;;2.60;99.90;;;;;;5057857;28;20228;-46
2022/02/01 00:37:50;;;;;;;11.97;7.17;;;2.60;99.90;;;;;;5059256;28;20214;-45
2022/02/01 00:40:18;;;;;;;16.63;7.80;;;2.60;99.90;;;;;;5055328;28;20280;-47
2022/02/01 00:42:45;;;;;;;15.67;6.60;;;2.60;99.90;;;;;;5061004;28;20194;-45
2022/02/01 00:45:12;;;;;;;15.93;7.57;;;2.60;99.90;;;;;;5047989;28;20198;-50
2022/02/01 00:47:41;;;;;;;16.30;7.03;;;2.60;99.90;;;;;;5047927;28;20221;-45
2022/02/01 00:50:12;;;;;;;13.73;6.80;;;2.70;99.90;;;;;;5063009;28;20255;-46
2022/02/01 00:52:39;;;;;;;12.63;6.07;;;2.70;99.90;;;;;;5057471;28;20919;-48
2022/02/01 00:55:08;;;;;;;13.20;5.70;;;2.70;99.90;;;;;;5053984;28;20211;-51
2022/02/01 00:57:37;;;;;;;16.00;6.97;;;2.70;99.90;;;;;;5044527;28;20222;-47
2022/02/01 01:00:06;;;;;;;12.47;5.73;;;2.70;99.90;;;;;;5043661;28;20213;-46
2022/02/01 01:02:32;;;;;;;13.80;5.43;;;2.70;99.90;;;;;;5051093;28;20190;-45
2022/02/01 01:04:59;;;;;;;10.00;6.43;;;2.80;99.90;;;;;;5055714;28;20209;-44
2022/02/01 01:07:26;;;;;;;8.83;5.10;;;2.80;99.90;;;;;;5051813;28;20296;-51
2022/02/01 01:09:54;;;;;;;15.13;5.37;;;2.80;99.90;;;;;;5062161;28;20651;-46
2022/02/01 01:12:21;;;;;;;8.73;5.00;;;2.80;99.90;;;;;;5049173;28;20210;-49
2022/02/01 01:18:05;;;;;;;11.67;3.93;;;2.90;99.90;;;;;;5042527;28;20225;-45
2022/02/01 01:45:20;;;;;;;11.33;2.23;;;3.10;99.90;;;;;;5063826;28;20201;-47
2022/02/01 01:53:20;;;;;;;6.90;2.30;;;3.10;99.90;;;;;;5061774;28;20214;-46
2022/02/01 01:55:49;;;;;;;10.70;2.53;;;3.10;99.90;;;;;;5050025;28;20298;-45
2022/02/01 01:58:16;;;;;;;5.87;1.80;;;3.10;99.90;;;;;;5049323;28;20264;-48
2022/02/01 02:01:02;;;;;;;8.23;1.90;;;3.10;99.90;;;;;;5062384;28;20193;-45
2022/02/01 02:03:30;;;;;;;8.83;1.83;;;3.10;99.90;;;;;;5045191;28;20202;-47
2022/02/01 02:05:57;;;;;;;12.70;2.43;;;3.00;99.90;;;;;;5060758;28;20210;-47
2022/02/01 02:08:24;;;;;;;8.97;1.83;;;3.00;99.90;;;;;;5062387;28;20256;-49
2022/02/01 02:11:00;;;;;;;10.63;1.57;;;3.10;99.90;;;;;;5063790;28;20685;-45
2022/02/01 02:16:10;;;;;;;9.17;1.43;;;3.00;99.90;;;;;;5063918;28;20218;-46
2022/02/01 02:18:38;;;;;;;7.97;1.97;;;3.00;99.90;;;;;;5048928;28;20194;-47
2022/02/01 02:21:06;;;;;;;13.97;2.00;;;3.00;99.90;;;;;;5044039;28;20278;-45
2022/02/01 02:23:34;;;;;;;6.77;1.70;;;2.90;99.90;;;;;;5056762;28;20187;-48
2022/02/01 02:26:06;;;;;;;11.57;1.30;;;2.90;99.90;;;;;;5063365;28;20219;-45
2022/02/01 02:28:32;;;;;;;11.93;1.47;;;2.90;99.90;;;;;;5047457;28;20203;-46
2022/02/01 02:31:01;;;;;;;6.77;1.77;;;2.90;99.90;;;;;;5062397;28;20198;-47
2022/02/01 02:33:28;;;;;;;6.57;1.40;;;2.90;99.90;;;;;;5061056;28;20207;-44
2022/02/01 02:35:58;;;;;;;11.43;1.93;;;2.80;99.90;;;;;;5049432;28;20226;-46
2022/02/01 02:38:35;;;;;;;8.20;1.47;;;2.90;99.90;;;;;;5061251;28;20214;-47
2022/02/01 02:41:21;;;;;;;7.53;1.77;;;2.90;99.90;;;;;;5064249;28;20191;-45
2022/02/01 02:46:34;;;;;;;12.63;1.43;;;2.80;99.90;;;;;;5049678;28;20202;-46
2022/02/01 02:49:00;;;;;;;7.90;1.70;;;2.80;99.90;;;;;;5063837;28;20206;-44
2022/02/01 02:51:27;;;;;;;9.83;1.73;;;2.80;99.90;;;;;;5046081;28;20214;-49
2022/02/01 02:53:55;;;;;;;6.30;1.77;;;2.80;99.90;;;;;;5062507;28;20602;-47
2022/02/01 02:56:22;;;;;;;11.33;2.03;;;2.80;99.90;;;;;;5054019;28;20691;-47
2022/02/01 02:58:51;;;;;;;6.00;1.63;;;2.90;99.90;;;;;;5061117;28;20199;-46
2022/02/01 03:01:19;;;;;;;13.13;2.07;;;2.80;99.90;;;;;;5056828;28;20671;-45
2022/02/01 03:03:46;;;;;;;9.30;1.93;;;2.80;99.90;;;;;;5051417;28;20204;-45
2022/02/01 03:06:13;;;;;;;10.57;2.40;;;2.80;99.90;;;;;;5059802;28;20218;-45
2022/02/01 03:08:39;;;;;;;11.03;1.70;;;2.90;99.90;;;;;;5050463;28;20200;-45
2022/02/01 03:11:12;;;;;;;11.30;2.00;;;2.90;99.90;;;;;;5060661;28;20203;-45
2022/02/01 03:13:41;;;;;;;8.37;2.13;;;2.90;99.90;;;;;;5051855;28;20232;-44
2022/02/01 03:16:14;;;;;;;11.63;1.80;;;2.90;99.90;;;;;;5063752;28;20226;-45
2022/02/01 03:21:25;;;;;;;11.90;1.50;;;2.90;99.90;;;;;;5046111;28;20200;-46
2022/02/01 03:23:52;;;;;;;10.50;1.93;;;2.90;99.90;;;;;;5061139;28;20210;-46
2022/02/01 03:26:20;;;;;;;7.63;1.53;;;2.90;99.90;;;;;;5061710;28;20301;-47
2022/02/01 03:28:47;;;;;;;11.20;2.10;;;2.90;99.90;;;;;;5059689;28;20225;-48
2022/02/01 03:31:14;;;;;;;15.50;1.87;;;2.90;99.90;;;;;;5063137;28;20198;-45
2022/02/01 03:33:40;;;;;;;7.60;2.13;;;2.90;99.90;;;;;;5061085;28;20213;-45
2022/02/01 03:36:08;;;;;;;11.10;2.40;;;2.90;99.90;;;;;;5057429;28;20230;-44
2022/02/01 03:38:35;;;;;;;9.00;1.77;;;2.90;99.90;;;;;;5045678;28;20233;-46
2022/02/01 03:41:03;;;;;;;8.07;1.50;;;2.90;99.90;;;;;;5063579;28;20264;-45
2022/02/01 03:43:31;;;;;;;9.10;1.50;;;3.00;99.90;;;;;;5048640;28;20198;-47
2022/02/01 03:45:58;;;;;;;9.67;1.47;;;3.00;99.90;;;;;;5063257;28;20218;-47
2022/02/01 03:48:25;;;;;;;11.67;2.10;;;3.00;99.90;;;;;;5060982;28;20541;-48
2022/02/01 03:50:52;;;;;;;11.33;1.90;;;3.10;99.90;;;;;;5052801;28;20203;-46
2022/02/01 03:53:19;;;;;;;8.47;1.73;;;3.10;99.90;;;;;;5050939;28;20584;-48
2022/02/01 03:55:46;;;;;;;12.30;1.43;;;3.10;99.90;;;;;;5055722;28;20214;-46
2022/02/01 03:58:12;;;;;;;13.23;1.57;;;3.10;99.90;;;;;;5056345;28;20662;-48
2022/02/01 04:00:41;;;;;;;13.33;1.80;;;3.10;99.90;;;;;;5060551;28;20248;-49
2022/02/01 04:03:08;;;;;;;8.63;1.80;;;3.10;99.90;;;;;;5063404;28;20195;-47
2022/02/01 04:05:35;;;;;;;3.93;1.83;;;3.10;99.90;;;;;;5051640;28;20206;-46
2022/02/01 04:08:03;;;;;;;5.93;1.70;;;3.10;99.90;;;;;;5063324;28;20579;-48
2022/02/01 04:10:30;;;;;;;8.77;1.80;;;3.10;99.90;;;;;;5041718;28;20233;-46
2022/02/01 04:12:58;;;;;;;10.30;2.03;;;3.10;99.90;;;;;;5056986;28;20284;-46
2022/02/01 04:15:27;;;;;;;15.13;2.17;;;3.00;99.90;;;;;;5060166;28;20295;-48
2022/02/01 04:17:55;;;;;;;7.07;1.77;;;3.00;99.90;;;;;;5062921;28;20214;-45
2022/02/01 04:20:22;;;;;;;10.23;1.63;;;3.10;99.90;;;;;;5060622;28;20290;-50
2022/02/01 04:22:49;;;;;;;9.77;1.90;;;3.10;99.90;;;;;;5051474;28;20191;-47
2022/02/01 04:25:15;;;;;;;10.30;1.87;;;3.00;99.90;;;;;;5047261;28;20206;-49
2022/02/01 04:27:42;;;;;;;7.93;2.93;;;3.10;99.90;;;;;;5051557;28;20214;-44
2022/02/01 04:30:13;;;;;;;13.30;1.80;;;3.00;99.90;;;;;;5054273;28;20706;-47
2022/02/01 04:32:43;;;;;;;11.47;1.90;;;3.10;99.90;;;;;;5057551;28;20311;-46
2022/02/01 04:35:13;;;;;;;8.93;2.50;;;3.10;99.90;;;;;;5062258;28;20650;-48
2022/02/01 04:37:40;;;;;;;11.60;2.37;;;3.00;99.90;;;;;;5048766;28;20231;-45
2022/02/01 04:40:10;;;;;;;7.37;1.67;;;3.10;99.90;;;;;;5046696;28;20202;-46
2022/02/01 04:42:38;;;;;;;8.67;1.50;;;3.00;99.90;;;;;;5041563;28;20194;-45
2022/02/01 04:45:05;;;;;;;12.03;2.07;;;3.10;99.90;;;;;;5046498;28;20278;-46
2022/02/01 04:47:34;;;;;;;11.67;1.97;;;3.00;99.90;;;;;;5061773;28;20264;-45
2022/02/01 04:50:02;;;;;;;10.00;2.27;;;3.00;99.90;;;;;;5058171;28;20190;-46
2022/02/01 04:52:31;;;;;;;11.60;1.77;;;3.10;99.90;;;;;;5054783;28;20248;-44
2022/02/01 04:54:58;;;;;;;15.83;2.20;;;3.10;99.90;;;;;;5041250;28;20569;-48
2022/02/01 04:57:26;;;;;;;14.00;2.20;;;3.10;99.90;;;;;;5054249;28;20214;-46
2022/02/01 04:59:53;;;;;;;15.07;2.00;;;3.10;99.90;;;;;;5061160;28;20245;-47
2022/02/01 05:02:19;;;;;;;8.67;1.97;;;3.10;99.90;;;;;;5047261;28;20260;-45
2022/02/01 05:04:46;;;;;;;17.37;2.33;;;3.10;99.90;;;;;;5047696;28;20240;-46
2022/02/01 05:07:13;;;;;;;15.63;2.03;;;3.10;99.90;;;;;;5058963;28;20777;-47
2022/02/01 05:09:41;;;;;;;15.47;1.73;;;3.20;99.90;;;;;;5054262;28;20190;-46
2022/02/01 05:12:10;;;;;;;11.30;2.13;;;3.20;99.90;;;;;;5035343;28;20206;-49
2022/02/01 05:14:37;;;;;;;14.63;2.40;;;3.20;99.90;;;;;;5054664;28;20214;-50
2022/02/01 05:17:04;;;;;;;15.63;2.20;;;3.30;99.90;;;;;;5052772;28;20215;-45
2022/02/01 05:19:53;;;;;;;11.40;1.57;;;3.30;99.90;;;;;;5058976;28;20554;-46
2022/02/01 05:22:21;;;;;;;10.90;2.57;;;3.30;99.90;;;;;;5059779;28;20234;-47
2022/02/01 05:24:53;;;;;;;16.33;2.17;;;3.40;99.90;;;;;;5057103;28;20552;-49
2022/02/01 05:27:23;;;;;;;10.17;2.07;;;3.40;99.90;;;;;;5043636;28;20438;-47
2022/02/01 05:29:50;;;;;;;15.07;2.43;;;3.40;99.90;;;;;;5053416;28;20200;-45
2022/02/01 05:32:25;;;;;;;11.97;1.90;;;3.50;99.90;;;;;;5058290;28;20205;-47
2022/02/01 05:34:53;;;;;;;11.50;1.87;;;3.50;99.90;;;;;;5055949;28;20244;-49
2022/02/01 05:37:20;;;;;;;10.00;1.87;;;3.50;99.90;;;;;;5058513;28;20229;-48
2022/02/01 05:39:48;;;;;;;7.73;1.30;;;3.50;99.90;;;;;;5055066;28;20623;-51
2022/02/01 05:42:19;;;;;;;6.83;1.83;;;3.50;99.90;;;;;;5048750;28;20206;-48
2022/02/01 05:44:47;;;;;;;6.87;1.73;;;3.50;99.90;;;;;;5048835;28;20205;-51
2022/02/01 05:47:15;;;;;;;10.73;1.37;;;3.50;99.90;;;;;;5058772;28;20214;-43
2022/02/01 05:49:43;;;;;;;11.00;1.70;;;3.50;99.90;;;;;;5051570;28;20252;-48
2022/02/01 05:52:10;;;;;;;7.93;1.60;;;3.50;99.90;;;;;;5062725;28;20203;-46
2022/02/01 05:54:38;;;;;;;11.57;2.20;;;3.60;99.90;;;;;;5065849;28;20207;-50
2022/02/01 05:57:08;;;;;;;11.60;2.27;;;3.60;99.90;;;;;;5047551;28;20280;-44
2022/02/01 05:59:37;;;;;;;15.07;1.70;;;3.60;99.90;;;;;;5049432;28;20195;-47
2022/02/01 06:02:06;;;;;;;8.70;1.63;;;3.60;99.90;;;;;;5051033;28;20195;-46
2022/02/01 06:04:33;;;;;;;13.40;1.80;;;3.60;99.90;;;;;;5048445;28;20207;-48
2022/02/01 06:07:00;;;;;;;15.67;2.33;;;3.60;99.90;;;;;;5060166;28;20607;-51
2022/02/01 06:09:26;;;;;;;8.70;1.50;;;3.60;99.90;;;;;;5061594;28;20589;-46
2022/02/01 06:11:53;;;;;;;7.30;1.70;;;3.60;99.90;;;;;;5049501;28;20311;-45
2022/02/01 06:14:21;;;;;;;12.23;3.07;;;3.50;99.90;;;;;;5041107;28;20210;-48
2022/02/01 06:16:48;;;;;;;10.87;2.80;;;3.50;99.90;;;;;;5036098;28;20295;-49
2022/02/01 06:19:15;;;;;;;13.33;2.13;;;3.50;99.90;;;;;;5042648;28;20198;-52
2022/02/01 06:21:42;;;;;;;9.07;2.27;;;3.50;99.90;;;;;;5061687;28;20195;-50
2022/02/01 06:24:09;;;;;;;11.03;2.63;;;3.50;99.90;;;;;;5058929;28;20195;-48
2022/02/01 06:26:36;;;;;;;13.90;2.20;;;3.50;99.90;;;;;;5063896;28;20214;-48
2022/02/01 06:29:03;;;;;;;22.67;2.80;;;3.50;99.90;;;;;;5044178;28;20213;-50
2022/02/01 06:31:31;;;;;;;16.33;2.43;;;3.50;99.90;;;;;;5035730;28;20217;-47
2022/02/01 06:33:58;;;;;;;11.10;2.00;;;3.50;99.90;;;;;;5060457;28;20548;-48
2022/02/01 06:36:25;;;;;;;13.27;1.87;;;3.50;99.90;;;;;;5051435;28;20218;-47
2022/02/01 06:38:53;;;;;;;12.83;1.90;;;3.50;99.90;;;;;;5061455;28;20567;-47
2022/02/01 06:41:20;;;;;;;11.63;1.87;;;3.50;99.90;;;;;;5053770;28;23022;-45
2022/02/01 06:43:47;;;;;;;12.93;2.27;;;3.60;99.90;;;;;;5062595;28;20202;-46
2022/02/01 06:46:14;;;;;;;17.73;3.87;;;3.60;99.90;;;;;;5036602;28;20222;-50
2022/02/01 06:48:42;;;;;;;16.80;2.77;;;3.60;99.90;;;;;;5052376;28;20194;-48
2022/02/01 06:51:10;;;;;;;8.67;1.70;;;3.60;99.90;;;;;;5048720;28;20219;-45
2022/02/01 06:53:43;;;;;;;6.57;1.23;;;3.60;99.90;;;;;;5064241;28;20201;-45
2022/02/01 06:56:17;;;;;;;16.97;2.03;;;3.60;99.90;;;;;;5059316;28;20218;-51
2022/02/01 06:58:44;;;;;;;8.37;1.27;;;3.60;99.90;;;;;;5058609;28;20693;-46
2022/02/01 07:01:11;;;;;;;9.37;1.63;;;3.60;99.90;;;;;;5039299;28;20286;-50
2022/02/01 07:03:38;;;;;;;10.70;1.73;;;3.60;99.90;;;;;;5052304;28;20210;-50
2022/02/01 07:06:11;;;;;;;10.37;2.47;;;3.50;99.90;;;;;;5054414;28;20215;-46
2022/02/01 07:08:39;;;;;;;14.43;2.30;;;3.60;99.90;;;;;;5054121;28;20194;-50
2022/02/01 07:11:06;;;;;;;9.00;1.70;;;3.50;99.90;;;;;;5059602;28;20584;-52
2022/02/01 07:13:34;;;;;;;11.20;1.80;;;3.60;99.90;;;;;;5048155;28;20232;-46
2022/02/01 07:16:01;;;;;;;9.07;2.00;;;3.50;99.90;;;;;;5046090;28;20337;-50
2022/02/01 07:18:28;;;;;;;6.77;2.10;;;3.50;99.90;;;;;;5040902;28;20222;-50
2022/02/01 07:20:55;;;;;;;8.93;2.43;;;3.50;99.90;;;;;;5051449;28;20198;-46
2022/02/01 07:23:23;;;;;;;12.60;2.33;;;3.50;99.90;;;;;;5053637;28;20203;-46
2022/02/01 07:25:51;;;;;;;15.80;2.03;;;3.60;99.90;;;;;;5052202;28;21053;-48
2022/02/01 07:28:20;;;;;;;19.50;2.53;;;3.60;99.90;;;;;;5055196;28;20217;-47
2022/02/01 07:30:48;;;;;;;2.33;1.63;;;3.60;99.90;;;;;;5037629;28;20214;-50
2022/02/01 07:33:15;;;;;;;13.50;2.03;;;3.60;99.90;;;;;;5051726;28;20206;-45
2022/02/01 07:35:45;;;;;;;11.73;2.10;;;3.60;99.90;;;;;;5049012;28;20195;-50
2022/02/01 07:38:15;;;;;;;11.47;2.30;;;3.60;99.90;;;;;;5047144;28;20218;-46
2022/02/01 07:40:45;;;;;;;13.97;2.47;;;3.60;99.90;;;;;;5045368;28;20310;-47
2022/02/01 07:43:12;;;;;;;13.80;2.00;;;3.60;99.90;;;;;;5056725;28;20207;-48
2022/02/01 07:45:41;;;;;;;10.07;2.30;;;3.60;99.90;;;;;;5061591;28;20197;-46
2022/02/01 07:48:08;;;;;;;13.20;2.37;;;3.60;99.90;;;;;;5034699;28;20265;-49
2022/02/01 07:50:36;;;;;;;7.27;1.90;;;3.60;99.90;;;;;;5046684;28;20203;-46
2022/02/01 07:53:04;;;;;;;6.50;2.10;;;3.60;99.90;;;;;;5054059;28;20218;-50
2022/02/01 07:55:31;;;;;;;8.13;1.43;;;3.60;99.90;;;;;;5060115;28;20194;-50
2022/02/01 07:58:00;;;;;;;8.03;2.10;;;3.60;99.90;;;;;;5062991;28;20225;-47
2022/02/01 08:00:28;;;;;;;18.13;2.63;;;3.60;99.90;;;;;;5058997;28;20907;-47
2022/02/01 08:02:55;;;;;;;8.37;1.93;;;3.60;99.90;;;;;;5047517;28;20210;-47
2022/02/01 08:05:24;;;;;;;8.57;1.80;;;3.60;99.90;;;;;;5038587;28;20285;-49
2022/02/01 08:07:51;;;;;;;10.20;1.67;;;3.60;99.90;;;;;;5057042;28;20285;-47
2022/02/01 08:10:18;;;;;;;19.33;3.00;;;3.60;99.90;;;;;;5046536;28;20679;-47
2022/02/01 08:18:34;;;;;;;7.27;2.20;;;3.70;99.90;;;;;;5016777;28;21868;-47
2022/02/01 08:21:03;;;;;;;8.07;2.17;;;3.70;99.90;;;;;;5055356;28;20194;-49
2022/02/01 08:23:30;;;;;;;14.27;2.43;;;3.70;99.90;;;;;;5052768;28;20195;-49
2022/02/01 08:25:59;;;;;;;9.13;1.87;;;3.80;99.90;;;;;;5062685;28;20638;-46
2022/02/01 08:28:26;;;;;;;12.77;2.80;;;3.80;99.90;;;;;;5058835;28;20194;-45
2022/02/01 08:30:55;;;;;;;12.47;2.43;;;3.80;99.90;;;;;;5062258;28;20209;-47
2022/02/01 08:33:23;;;;;;;16.87;3.57;;;3.80;99.90;;;;;;5045406;28;20202;-50
2022/02/01 08:35:50;;;;;;;6.03;1.83;;;3.90;99.90;;;;;;5048227;28;20209;-47
2022/02/01 08:38:19;;;;;;;6.80;1.97;;;3.90;99.90;;;;;;5049951;28;20737;-50
2022/02/01 08:40:47;;;;;;;10.37;1.90;;;3.90;99.90;;;;;;5059260;28;20213;-46
2022/02/01 08:43:14;;;;;;;17.27;4.03;;;3.90;99.90;;;;;;5060963;28;20214;-49
2022/02/01 08:45:42;;;;;;;17.50;3.23;;;3.90;99.90;;;;;;5060864;28;20187;-46
2022/02/01 08:48:10;;;;;;;17.23;1.93;;;3.90;99.90;;;;;;5052553;28;20190;-48
2022/02/01 08:50:37;;;;;;;15.27;3.53;;;4.00;99.90;;;;;;5053250;28;20198;-46
2022/02/01 08:53:13;;;;;;;9.03;2.23;;;4.00;99.90;;;;;;5055004;28;20675;-48
2022/02/01 08:56:00;;;;;;;6.73;1.87;;;4.00;99.90;;;;;;5049753;28;20205;-47
2022/02/01 08:58:27;;;;;;;7.40;1.87;;;4.00;99.90;;;;;;5057015;28;20298;-46
2022/02/01 09:00:55;;;;;;;4.17;2.10;;;4.00;99.90;;;;;;5061940;28;20217;-49
2022/02/01 09:03:25;;;;;;;10.43;2.13;;;4.00;99.90;;;;;;5058851;28;20890;-50
2022/02/01 09:05:52;;;;;;;9.63;2.40;;;4.10;99.90;;;;;;5044816;28;20206;-45
2022/02/01 09:08:20;;;;;;;13.20;2.50;;;4.10;99.90;;;;;;5040586;28;20216;-47
2022/02/01 09:10:47;;;;;;;12.90;2.60;;;4.10;99.90;;;;;;5050148;28;20198;-48
2022/02/01 09:13:14;;;;;;;13.77;2.50;;;4.10;99.90;;;;;;5052332;28;20218;-47
2022/02/01 09:15:41;;;;;;;19.47;4.63;;;4.20;99.90;;;;;;5061365;28;20282;-49
2022/02/01 09:18:08;;;;;;;27.63;6.23;;;4.20;99.90;;;;;;5052577;28;20341;-45
2022/02/01 09:20:36;;;;;;;20.50;3.90;;;4.20;99.90;;;;;;5046002;28;20585;-44
2022/02/01 09:23:03;;;;;;;10.93;2.50;;;4.30;99.90;;;;;;5047444;28;20203;-49
2022/02/01 09:25:30;;;;;;;6.50;2.03;;;4.30;99.90;;;;;;5057523;28;20256;-50
2022/02/01 09:27:59;;;;;;;8.00;3.03;;;4.30;99.90;;;;;;5046870;28;20698;-48
2022/02/01 09:30:27;;;;;;;5.40;2.17;;;4.30;99.90;;;;;;5052074;28;20285;-47
2022/02/01 09:32:54;;;;;;;9.33;2.30;;;4.30;99.90;;;;;;5035391;28;20216;-47
2022/02/01 09:35:20;;;;;;;15.23;4.10;;;4.30;99.90;;;;;;5053356;28;20206;-45
2022/02/01 09:37:49;;;;;;;4.03;2.00;;;4.40;99.90;;;;;;5035658;28;20215;-48
2022/02/01 09:40:16;;;;;;;17.20;4.53;;;4.40;99.90;;;;;;5046247;28;20238;-44
2022/02/01 09:42:42;;;;;;;9.37;4.03;;;4.40;99.90;;;;;;5048906;28;20198;-45
2022/02/01 09:45:11;;;;;;;9.77;3.33;;;4.40;99.90;;;;;;5049513;28;20208;-48
2022/02/01 09:47:40;;;;;;;4.43;1.40;;;4.40;99.90;;;;;;5062676;28;20252;-48
2022/02/01 09:50:08;;;;;;;17.13;3.83;;;4.40;99.90;;;;;;5061197;28;20277;-46
2022/02/01 09:52:37;;;;;;;7.97;2.83;;;4.30;99.90;;;;;;5048955;28;20214;-47
2022/02/01 09:55:09;;;;;;;13.53;2.87;;;4.30;99.90;;;;;;5046157;28;20214;-48
2022/02/01 09:57:37;;;;;;;17.47;4.00;;;4.30;99.90;;;;;;5050962;28;20219;-48
2022/02/01 10:00:12;;;;;;;10.23;2.73;;;4.30;99.90;;;;;;5054894;28;20210;-46
2022/02/01 10:02:41;;;;;;;14.37;2.93;;;4.30;99.90;;;;;;5064338;28;20698;-46
2022/02/01 10:05:10;;;;;;;9.97;3.47;;;4.20;99.90;;;;;;5060684;28;20268;-52
2022/02/01 10:07:46;;;;;;;19.17;4.30;;;4.20;99.90;;;;;;5049417;28;20222;-47
2022/02/01 10:10:14;;;;;;;29.67;4.90;;;4.10;99.90;;;;;;5046033;28;20210;-46
2022/02/01 10:12:43;;;;;;;16.73;4.30;;;4.10;99.90;;;;;;5062654;28;20186;-48
2022/02/01 10:15:19;;;;;;;23.90;5.23;;;4.10;99.90;;;;;;5047257;28;20690;-50
2022/02/01 10:17:48;;;;;;;24.73;7.10;;;4.10;99.90;;;;;;5062233;28;20293;-48
2022/02/01 10:20:16;;;;;;;24.37;5.33;;;4.00;99.90;;;;;;5051050;28;20215;-48
2022/02/01 10:22:44;;;;;;;27.13;6.37;;;4.00;99.90;;;;;;5046666;28;20213;-50
2022/02/01 10:25:34;;;;;;;14.93;3.53;;;4.00;99.90;;;;;;5040809;28;20873;-49
2022/02/01 10:28:03;;;;;;;21.93;7.87;;;4.00;99.90;;;;;;5053549;28;20214;-47
2022/02/01 10:30:36;;;;;;;22.13;5.57;;;4.00;99.90;;;;;;5059527;28;20209;-46
2022/02/01 10:35:58;;;;;;;8.53;4.27;;;4.00;99.90;;;;;;5052900;28;20207;-45
2022/02/01 10:38:32;;;;;;;12.70;4.97;;;4.00;99.90;;;;;;5047102;28;20234;-47
2022/02/01 10:41:01;;;;;;;15.03;5.17;;;3.90;99.90;;;;;;5035863;28;20199;-45
2022/02/01 10:43:30;;;;;;;8.07;3.40;;;4.00;99.90;;;;;;5057063;28;20199;-50
2022/02/01 10:46:07;;;;;;;23.27;6.63;;;4.00;99.90;;;;;;5045528;28;20202;-46
2022/02/01 10:48:34;;;;;;;16.20;5.73;;;4.00;99.90;;;;;;5056007;28;20290;-45
2022/02/01 10:51:05;;;;;;;13.57;4.83;;;4.00;99.90;;;;;;5054688;28;20187;-46
2022/02/01 10:53:33;;;;;;;14.90;5.67;;;4.00;99.90;;;;;;5044271;28;20210;-48
2022/02/01 10:56:04;;;;;;;9.97;3.90;;;4.00;99.90;;;;;;5052396;28;20227;-45
2022/02/01 10:58:31;;;;;;;12.70;4.40;;;4.10;99.90;;;;;;5051128;28;20211;-48
2022/02/01 11:00:58;;;;;;;15.47;4.90;;;4.10;99.90;;;;;;5042787;28;20195;-46
2022/02/01 11:03:25;;;;;;;14.20;4.70;;;4.10;99.90;;;;;;5053447;28;20272;-50
2022/02/01 11:05:53;;;;;;;16.10;4.23;;;4.00;99.90;;;;;;5054733;28;20198;-47
2022/02/01 11:08:26;;;;;;;15.00;4.13;;;4.10;99.90;;;;;;5056479;28;20594;-45
2022/02/01 11:10:54;;;;;;;3.70;2.50;;;4.10;99.90;;;;;;5040938;28;20574;-47
2022/02/01 11:13:23;;;;;;;10.53;4.03;;;4.10;99.90;;;;;;5056955;28;20292;-45
2022/02/01 11:15:58;;;;;;;4.83;2.27;;;4.10;99.90;;;;;;5043469;28;20664;-47
2022/02/01 11:18:26;;;;;;;5.57;2.90;;;4.10;99.90;;;;;;5047170;28;20591;-50
2022/02/01 11:20:54;;;;;;;11.23;3.47;;;4.20;99.90;;;;;;5046342;28;20231;-46
2022/02/01 11:23:22;;;;;;;12.33;4.97;;;4.20;99.90;;;;;;5054209;28;20230;-47
2022/02/01 11:25:54;;;;;;;8.47;3.37;;;4.30;99.90;;;;;;5042963;28;20695;-47
2022/02/01 11:28:40;;;;;;;5.33;3.10;;;4.30;99.90;;;;;;5046558;28;20256;-44
2022/02/01 11:31:07;;;;;;;6.63;2.90;;;4.30;99.90;;;;;;5053045;28;20204;-45
2022/02/01 11:33:39;;;;;;;38.83;8.77;;;4.40;99.90;;;;;;5053669;28;20201;-46
2022/02/01 11:36:09;;;;;;;9.23;3.37;;;4.40;99.90;;;;;;5047625;28;20238;-44
2022/02/01 11:38:36;;;;;;;4.37;2.63;;;4.40;99.90;;;;;;5058760;28;20218;-46
2022/02/01 11:41:06;;;;;;;2.97;2.70;;;4.50;99.90;;;;;;5042164;28;20234;-49
2022/02/01 11:43:35;;;;;;;3.40;2.80;;;4.50;99.90;;;;;;5052673;28;20679;-48
2022/02/01 11:46:06;;;;;;;6.17;3.60;;;4.50;99.90;;;;;;5050347;28;21402;-45
2022/02/01 11:48:34;;;;;;;5.27;3.47;;;4.50;99.90;;;;;;5056962;28;20257;-45
2022/02/01 11:51:03;;;;;;;11.43;5.17;;;4.60;99.90;;;;;;5047740;28;20194;-48
2022/02/01 11:53:38;;;;;;;4.17;3.77;;;4.60;99.90;;;;;;5052944;28;20210;-49
2022/02/01 11:56:07;;;;;;;7.43;3.90;;;4.70;99.90;;;;;;5038899;28;20815;-46
2022/02/01 11:58:37;;;;;;;10.10;5.17;;;4.70;99.90;;;;;;5061378;28;20217;-44
2022/02/01 12:01:07;;;;;;;2.33;2.00;;;4.70;99.90;;;;;;5045763;28;20227;-46
2022/02/01 12:03:37;;;;;;;9.03;3.93;;;4.80;99.90;;;;;;5051959;28;20287;-45
2022/02/01 12:06:09;;;;;;;14.47;4.70;;;4.90;99.90;;;;;;5050110;28;20230;-44
2022/02/01 12:08:42;;;;;;;3.63;3.33;;;4.90;99.90;;;;;;5058039;28;20198;-49
2022/02/01 12:11:09;;;;;;;10.97;4.73;;;5.00;99.90;;;;;;5052856;28;20943;-48
2022/02/01 12:13:38;;;;;;;13.50;5.07;;;5.00;99.90;;;;;;5046113;28;20211;-48
2022/02/01 12:16:10;;;;;;;3.17;2.87;;;5.00;99.90;;;;;;5052662;28;20218;-52
2022/02/01 12:18:46;;;;;;;4.63;3.50;;;5.10;99.90;;;;;;5053203;28;20211;-45
2022/02/01 12:21:29;;;;;;;5.57;2.80;;;5.20;99.90;;;;;;5049890;28;20198;-45
2022/02/01 12:23:57;;;;;;;2.60;2.37;;;5.20;99.90;;;;;;5050589;28;20187;-45
2022/02/01 12:26:26;;;;;;;4.57;2.50;;;5.20;99.90;;;;;;5058404;28;20223;-48
2022/02/01 12:28:57;;;;;;;3.90;2.30;;;5.30;99.90;;;;;;5041312;28;20209;-48
2022/02/01 12:31:26;;;;;;;5.30;2.60;;;5.30;99.90;;;;;;5054787;28;20210;-52
2022/02/01 12:33:55;;;;;;;1.87;1.77;;;5.40;99.90;;;;;;5048209;28;20627;-47
2022/02/01 12:36:27;;;;;;;3.20;2.13;;;5.40;99.90;;;;;;5049045;28;20234;-48
2022/02/01 12:39:02;;;;;;;3.13;1.80;;;5.40;99.90;;;;;;5053149;28;20293;-51
2022/02/01 12:41:32;;;;;;;3.03;2.17;;;5.40;99.90;;;;;;5053982;28;20663;-49
2022/02/01 12:46:51;;;;;;;2.23;1.70;;;5.50;99.90;;;;;;5048038;28;20222;-51
2022/02/01 12:49:19;;;;;;;2.97;1.80;;;5.60;99.90;;;;;;5050918;28;20203;-48
2022/02/01 12:51:48;;;;;;;3.87;1.57;;;5.60;99.90;;;;;;5047910;28;20206;-47
2022/02/01 12:54:25;;;;;;;3.23;1.60;;;5.60;99.90;;;;;;5043734;28;20215;-49
2022/02/01 12:57:05;;;;;;;2.80;1.60;;;5.70;99.90;;;;;;5050148;28;20296;-47
2022/02/01 12:59:43;;;;;;;4.53;1.80;;;5.80;99.90;;;;;;5044553;28;20230;-48
2022/02/01 13:02:11;;;;;;;3.20;1.53;;;5.90;99.90;;;;;;5046076;28;20579;-48
2022/02/01 13:04:39;;;;;;;3.80;1.83;;;5.90;99.90;;;;;;5048832;28;20944;-46
2022/02/01 13:07:16;;;;;;;7.93;2.10;;;6.00;99.90;;;;;;5045224;28;20241;-46
2022/02/01 13:15:25;;;;;;;3.57;1.60;;;6.20;99.90;;;;;;5047498;28;20223;-48
2022/02/01 13:18:11;;;;;;;7.70;2.30;;;6.20;99.90;;;;;;5057596;28;20243;-47
2022/02/01 13:20:41;;;;;;;6.27;2.17;;;6.20;99.90;;;;;;5052934;28;20217;-46
2022/02/01 13:23:08;;;;;;;9.77;2.20;;;6.30;99.90;;;;;;5046132;28;20276;-50
2022/02/01 13:25:37;;;;;;;3.17;2.43;;;6.40;99.90;;;;;;5051819;28;20420;-50
2022/02/01 13:28:07;;;;;;;6.83;2.50;;;6.50;99.90;;;;;;5050690;28;20195;-47
2022/02/01 13:30:36;;;;;;;10.90;2.87;;;6.50;99.90;;;;;;5049777;28;20192;-46
2022/02/01 13:33:06;;;;;;;6.10;2.13;;;6.60;99.90;;;;;;5047238;28;20236;-49
2022/02/01 13:35:34;;;;;;;13.03;2.20;;;6.70;99.90;;;;;;5055577;28;20261;-46
2022/02/01 13:38:10;;;;;;;13.07;2.93;;;6.70;99.90;;;;;;5056550;28;20270;-48
2022/02/01 13:40:37;;;;;;;8.47;2.63;;;6.80;99.90;;;;;;5055540;28;20326;-52
2022/02/01 13:43:13;;;;;;;18.00;3.20;;;6.90;99.90;;;;;;5050988;28;20209;-51
2022/02/01 13:45:41;;;;;;;10.10;2.90;;;7.00;99.90;;;;;;5045098;28;20233;-52
2022/02/01 13:48:11;;;;;;;9.97;2.47;;;7.00;99.90;;;;;;5051581;28;20264;-50
2022/02/01 13:50:39;;;;;;;13.13;2.93;;;7.10;99.90;;;;;;5051985;28;20218;-50
2022/02/01 13:53:08;;;;;;;13.33;2.80;;;7.10;99.90;;;;;;5059177;28;20199;-48
2022/02/01 13:55:39;;;;;;;14.57;3.43;;;7.10;99.90;;;;;;5046729;28;20199;-48
2022/02/01 13:58:08;;;;;;;14.23;3.40;;;7.10;99.90;;;;;;5058681;28;20373;-50
2022/02/01 14:00:37;;;;;;;18.87;3.60;;;7.20;99.90;;;;;;5037102;28;20309;-50
2022/02/01 14:03:32;;;;;;;21.03;3.70;;;7.20;99.90;;;;;;5058679;28;20198;-47
2022/02/01 14:06:05;;;;;;;12.80;2.60;;;7.20;99.90;;;;;;5050797;28;20203;-48
2022/02/01 14:08:41;;;;;;;17.53;3.67;;;7.30;99.90;;;;;;5062604;28;20210;-50
2022/02/01 14:14:18;;;;;;;13.47;3.13;;;7.30;99.90;;;;;;5047613;28;20195;-47
2022/02/01 14:22:46;;;;;;;15.13;3.27;;;7.30;99.90;;;;;;5056587;28;20196;-47
2022/02/01 14:28:10;;;;;;;14.10;2.93;;;7.40;99.90;;;;;;5063582;28;20291;-47
2022/02/01 14:33:31;;;;;;;15.43;2.83;;;7.40;99.90;;;;;;5054004;28;20247;-46